Time;durP1;ratioP1;P1;durP2;ratioP2;P2;SDS_P1;SDS_P2;PMS_P1;PMS_P2;Temp;Humidity;BMP_temperature;BMP_pressure;BME280_temperature;BME280_humidity;BME280_pressure;Samples;Min_cycle;Max_cycle;Signal;HPM_P1;HPM_P2
2023/06/03 00:03:54;;;;;;;;;;;15.60;99.90;;;;;;8411694;28;20378;-74
2023/06/03 00:07:56;;;;;;;;;;;15.50;99.90;;;;;;8410894;28;19969;-74
2023/06/03 00:11:57;;;;;;;;;;;15.50;99.90;;;;;;8427208;28;19935;-74
2023/06/03 00:15:59;;;;;;;;;;;15.50;99.90;;;;;;8427888;28;19928;-74
2023/06/03 00:20:09;;;;;;;;;;;15.40;99.90;;;;;;8414920;28;19986;-74
2023/06/03 00:24:11;;;;;;;;;;;15.40;99.90;;;;;;8426868;28;19924;-74
2023/06/03 00:28:13;;;;;;;;;;;15.30;99.90;;;;;;8415349;28;19951;-74
2023/06/03 00:32:15;;;;;;;;;;;15.30;99.90;;;;;;8411664;28;19941;-74
2023/06/03 00:36:16;;;;;;;;;;;15.30;99.90;;;;;;8430427;28;19970;-74
2023/06/03 00:40:18;;;;;;;;;;;15.20;99.90;;;;;;8426116;28;19966;-74
2023/06/03 00:44:19;;;;;;;;;;;15.20;99.90;;;;;;8428837;28;19932;-74
2023/06/03 00:48:21;;;;;;;;;;;15.10;99.90;;;;;;8400667;28;19970;-74
2023/06/03 00:52:23;;;;;;;;;;;15.10;99.90;;;;;;8417910;28;20363;-74
2023/06/03 00:56:26;;;;;;;;;;;15.10;99.90;;;;;;8400648;28;19928;-74
2023/06/03 01:00:27;;;;;;;;;;;15.10;99.90;;;;;;8418044;28;19931;-74
2023/06/03 01:04:29;;;;;;;;;;;15.00;99.90;;;;;;8419774;28;19928;-74
2023/06/03 01:08:39;;;;;;;;;;;15.00;99.90;;;;;;8411800;28;20388;-74
2023/06/03 01:12:44;;;;;;;;;;;15.00;99.90;;;;;;8427037;28;19924;-74
2023/06/03 01:16:48;;;;;;;;;;;14.90;99.90;;;;;;8425463;28;20338;-73
2023/06/03 01:20:50;;;;;;;;;;;14.90;99.90;;;;;;8432605;28;20321;-74
2023/06/03 01:25:06;;;;;;;;;;;14.80;99.90;;;;;;8393349;28;19968;-73
2023/06/03 01:29:07;;;;;;;;;;;14.80;99.90;;;;;;8413713;28;19939;-74
2023/06/03 01:33:09;;;;;;;;;;;14.80;99.90;;;;;;8420460;28;20010;-74
2023/06/03 01:37:11;;;;;;;;;;;14.70;99.90;;;;;;8410860;28;19925;-74
2023/06/03 01:41:13;;;;;;;;;;;14.70;99.90;;;;;;8416568;28;19977;-73
2023/06/03 01:45:15;;;;;;;;;;;14.70;99.90;;;;;;8404396;28;20375;-74
2023/06/03 01:49:17;;;;;;;;;;;14.70;99.90;;;;;;8389876;28;19932;-74
2023/06/03 01:53:20;;;;;;;;;;;14.60;99.90;;;;;;8402327;28;19924;-73
2023/06/03 01:57:22;;;;;;;;;;;14.60;99.90;;;;;;8420722;28;19928;-74
2023/06/03 02:01:24;;;;;;;;;;;14.60;99.90;;;;;;8417087;28;19977;-73
2023/06/03 02:05:26;;;;;;;;;;;14.50;99.90;;;;;;8400674;28;19931;-74
2023/06/03 02:09:28;;;;;;;;;;;14.50;99.90;;;;;;8400118;28;19947;-74
2023/06/03 02:13:30;;;;;;;;;;;14.50;99.90;;;;;;8405398;28;19950;-74
2023/06/03 02:17:31;;;;;;;;;;;14.50;99.90;;;;;;8415040;28;19924;-73
2023/06/03 02:21:33;;;;;;;;;;;14.40;99.90;;;;;;8406248;28;19931;-74
2023/06/03 02:25:35;;;;;;;;;;;14.40;99.90;;;;;;8429180;28;20353;-73
2023/06/03 02:29:37;;;;;;;;;;;14.30;99.90;;;;;;8409932;28;19937;-74
2023/06/03 02:33:39;;;;;;;;;;;14.30;99.90;;;;;;8421249;28;19924;-73
2023/06/03 02:37:40;;;;;;;;;;;14.30;99.90;;;;;;8423939;28;20287;-74
2023/06/03 02:41:42;;;;;;;;;;;14.30;99.90;;;;;;8419515;28;19925;-74
2023/06/03 02:45:45;;;;;;;;;;;14.30;99.90;;;;;;8405424;28;20383;-73
2023/06/03 02:49:47;;;;;;;;;;;14.20;99.90;;;;;;8419802;28;20402;-74
2023/06/03 02:53:50;;;;;;;;;;;14.20;99.90;;;;;;8422829;28;19928;-73
2023/06/03 02:57:51;;;;;;;;;;;14.20;99.90;;;;;;8423072;28;20356;-73
2023/06/03 03:01:53;;;;;;;;;;;14.10;99.90;;;;;;8418996;28;19924;-73
2023/06/03 03:05:56;;;;;;;;;;;14.10;99.90;;;;;;8421082;28;20660;-73
2023/06/03 03:09:58;;;;;;;;;;;14.10;99.90;;;;;;8408225;28;19951;-73
2023/06/03 03:14:00;;;;;;;;;;;14.00;99.90;;;;;;8421152;28;19924;-74
2023/06/03 03:18:01;;;;;;;;;;;14.00;99.90;;;;;;8412498;28;20295;-73
2023/06/03 03:22:03;;;;;;;;;;;14.00;99.90;;;;;;8421144;28;19931;-74
2023/06/03 03:26:06;;;;;;;;;;;13.90;99.90;;;;;;8438116;28;19931;-73
2023/06/03 03:30:08;;;;;;;;;;;13.90;99.90;;;;;;8432641;28;19931;-74
2023/06/03 03:34:10;;;;;;;;;;;13.90;99.90;;;;;;8416843;28;20407;-73
2023/06/03 03:38:11;;;;;;;;;;;13.80;99.90;;;;;;8432739;28;19924;-74
2023/06/03 03:42:13;;;;;;;;;;;13.80;99.90;;;;;;8426645;28;20395;-74
2023/06/03 03:46:15;;;;;;;;;;;13.70;99.90;;;;;;8429657;28;20007;-74
2023/06/03 03:50:32;;;;;;;;;;;13.70;99.90;;;;;;8426995;28;19950;-74
2023/06/03 03:54:35;;;;;;;;;;;13.70;99.90;;;;;;8431032;28;19928;-74
2023/06/03 03:58:37;;;;;;;;;;;13.70;99.90;;;;;;8398652;28;20043;-74
2023/06/03 04:02:41;;;;;;;;;;;13.70;99.90;;;;;;8414731;28;19924;-74
2023/06/03 04:06:42;;;;;;;;;;;13.70;99.90;;;;;;8404392;28;19924;-73
2023/06/03 04:10:44;;;;;;;;;;;13.70;99.90;;;;;;8395351;28;19931;-73
2023/06/03 04:14:48;;;;;;;;;;;13.70;99.90;;;;;;8413660;28;19975;-74
2023/06/03 04:18:50;;;;;;;;;;;13.80;99.90;;;;;;8406617;28;19950;-73
2023/06/03 04:22:52;;;;;;;;;;;13.80;99.90;;;;;;8415876;28;19931;-73
2023/06/03 04:26:54;;;;;;;;;;;13.80;99.90;;;;;;8429741;28;19928;-73
2023/06/03 04:51:11;;;;;;;;;;;14.10;99.90;;;;;;8419236;28;19931;-73
2023/06/03 05:00:36;;;;;;;;;;;14.30;99.90;;;;;;8394691;28;19977;-74
2023/06/03 05:04:40;;;;;;;;;;;14.30;99.90;;;;;;8380832;28;19924;-74
2023/06/03 05:08:42;;;;;;;;;;;14.30;99.90;;;;;;8372917;28;20266;-73
2023/06/03 05:12:45;;;;;;;;;;;14.40;99.90;;;;;;8382041;28;19968;-74
2023/06/03 05:16:46;;;;;;;;;;;14.50;99.90;;;;;;8372100;28;19925;-74
2023/06/03 05:20:48;;;;;;;;;;;14.50;99.90;;;;;;8380143;28;19963;-74
2023/06/03 05:24:50;;;;;;;;;;;14.60;99.90;;;;;;8369715;28;20208;-73
2023/06/03 05:28:52;;;;;;;;;;;14.70;99.90;;;;;;8375785;28;20304;-74
2023/06/03 05:32:53;;;;;;;;;;;14.80;99.90;;;;;;8375260;28;19928;-73
2023/06/03 05:36:55;;;;;;;;;;;14.90;99.90;;;;;;8384218;28;20384;-73
2023/06/03 05:40:57;;;;;;;;;;;15.00;99.90;;;;;;8380954;28;19931;-74
2023/06/03 05:44:58;;;;;;;;;;;15.00;99.90;;;;;;8380017;28;19929;-73
2023/06/03 05:49:00;;;;;;;;;;;15.10;99.90;;;;;;8370218;28;20376;-73
2023/06/03 05:53:03;;;;;;;;;;;15.20;99.90;;;;;;8360406;28;19950;-74
2023/06/03 05:57:04;;;;;;;;;;;15.30;99.90;;;;;;8364793;28;19925;-73
2023/06/03 06:01:06;;;;;;;;;;;15.30;99.90;;;;;;8368625;28;19985;-75
2023/06/03 06:05:08;;;;;;;;;;;15.40;99.90;;;;;;8414300;28;19928;-74
2023/06/03 06:09:10;;;;;;;;;;;15.60;99.90;;;;;;8410744;28;19929;-74
2023/06/03 06:13:11;;;;;;;;;;;15.70;99.90;;;;;;8409543;28;19924;-74
2023/06/03 06:17:16;;;;;;;;;;;15.80;99.90;;;;;;8405774;28;20295;-72
2023/06/03 06:21:17;;;;;;;;;;;15.90;99.90;;;;;;8415313;28;19924;-72
2023/06/03 06:25:20;;;;;;;;;;;16.00;99.90;;;;;;8414897;28;20330;-71
2023/06/03 06:29:22;;;;;;;;;;;16.10;99.90;;;;;;8396777;28;19931;-72
2023/06/03 06:33:24;;;;;;;;;;;16.20;99.90;;;;;;8419151;28;20396;-72
2023/06/03 06:37:25;;;;;;;;;;;16.30;99.90;;;;;;8416022;28;19970;-72
2023/06/03 06:41:27;;;;;;;;;;;16.40;99.90;;;;;;8407927;28;19924;-71
2023/06/03 06:45:30;;;;;;;;;;;16.50;99.90;;;;;;8408517;28;20371;-71
2023/06/03 06:49:34;;;;;;;;;;;16.60;99.90;;;;;;8417679;28;20006;-72
2023/06/03 06:53:36;;;;;;;;;;;16.80;99.90;;;;;;8411360;28;19931;-71
2023/06/03 06:57:38;;;;;;;;;;;16.80;99.90;;;;;;8417975;28;20400;-72
2023/06/03 07:01:39;;;;;;;;;;;16.90;99.90;;;;;;8414556;28;19931;-72
2023/06/03 07:05:41;;;;;;;;;;;17.10;99.90;;;;;;8412232;28;19939;-72
2023/06/03 07:09:43;;;;;;;;;;;17.20;99.90;;;;;;8399421;28;19977;-72
2023/06/03 07:13:45;;;;;;;;;;;17.40;99.90;;;;;;8415136;28;19977;-72
2023/06/03 07:17:49;;;;;;;;;;;17.50;99.90;;;;;;8415742;28;19928;-72
2023/06/03 07:21:51;;;;;;;;;;;17.60;99.90;;;;;;8421760;28;20023;-72
2023/06/03 07:25:54;;;;;;;;;;;17.70;99.90;;;;;;8410303;28;19924;-71
2023/06/03 07:30:00;;;;;;;;;;;17.80;99.90;;;;;;8412899;28;19924;-72
2023/06/03 07:34:02;;;;;;;;;;;17.90;99.90;;;;;;8413144;28;19928;-72
2023/06/03 07:38:04;;;;;;;;;;;18.00;99.90;;;;;;8420842;28;19928;-72
2023/06/03 07:42:12;;;;;;;;;;;18.10;99.90;;;;;;8417227;28;19924;-72
2023/06/03 07:46:13;;;;;;;;;;;18.20;99.90;;;;;;8420277;28;19932;-72
2023/06/03 07:50:23;;;;;;;;;;;18.30;99.90;;;;;;8412386;28;19932;-72
2023/06/03 07:54:26;;;;;;;;;;;18.40;99.90;;;;;;8412850;28;20283;-72
2023/06/03 07:58:29;;;;;;;;;;;18.50;99.90;;;;;;8426637;28;19927;-72
2023/06/03 08:02:30;;;;;;;;;;;18.70;99.90;;;;;;8420307;28;19928;-72
2023/06/03 08:06:36;;;;;;;;;;;18.80;99.90;;;;;;8417710;28;19928;-72
2023/06/03 08:10:38;;;;;;;;;;;18.90;99.90;;;;;;8427441;28;19924;-72
2023/06/03 08:14:39;;;;;;;;;;;19.00;99.90;;;;;;8420882;28;19932;-72
2023/06/03 08:18:47;;;;;;;;;;;19.10;99.90;;;;;;8427936;28;19935;-71
2023/06/03 08:22:49;;;;;;;;;;;19.10;99.90;;;;;;8427720;28;19928;-72
2023/06/03 08:26:51;;;;;;;;;;;19.10;99.90;;;;;;8421172;28;19943;-72
2023/06/03 08:30:53;;;;;;;;;;;19.20;99.90;;;;;;8431616;28;19928;-72
2023/06/03 08:34:55;;;;;;;;;;;19.20;99.90;;;;;;8432863;28;19931;-72
2023/06/03 08:38:56;;;;;;;;;;;19.30;99.90;;;;;;8420286;28;19924;-72
2023/06/03 08:43:00;;;;;;;;;;;19.30;99.90;;;;;;8408094;28;19928;-72
2023/06/03 08:47:25;;;;;;;;;;;19.30;99.90;;;;;;8420828;28;19935;-72
2023/06/03 08:51:26;;;;;;;;;;;19.30;99.90;;;;;;8419614;28;19965;-72
2023/06/03 08:55:29;;;;;;;;;;;19.40;99.90;;;;;;8397683;28;19935;-72
2023/06/03 08:59:31;;;;;;;;;;;19.50;99.90;;;;;;8423693;28;20434;-72
2023/06/03 09:03:34;;;;;;;;;;;19.50;99.90;;;;;;8415450;28;19967;-72
2023/06/03 09:07:36;;;;;;;;;;;19.50;99.90;;;;;;8408001;28;19929;-72
2023/06/03 09:11:38;;;;;;;;;;;19.50;99.90;;;;;;8391401;28;20016;-72
2023/06/03 09:15:41;;;;;;;;;;;19.60;99.90;;;;;;8373847;28;20329;-72
2023/06/03 09:19:44;;;;;;;;;;;19.60;99.90;;;;;;8395100;28;19942;-72
2023/06/03 09:23:46;;;;;;;;;;;19.60;99.90;;;;;;8394465;28;20454;-72
2023/06/03 09:27:47;;;;;;;;;;;19.70;99.90;;;;;;8387063;28;19931;-72
2023/06/03 09:31:49;;;;;;;;;;;19.70;99.90;;;;;;8385018;28;20296;-72
2023/06/03 09:36:06;;;;;;;;;;;19.80;99.90;;;;;;8373140;28;19929;-71
2023/06/03 09:40:23;;;;;;;;;;;19.80;99.90;;;;;;8391073;28;20517;-72
2023/06/03 09:44:36;;;;;;;;;;;19.80;99.90;;;;;;8383872;28;19925;-72
2023/06/03 09:48:37;;;;;;;;;;;19.90;99.90;;;;;;8392957;28;20005;-72
2023/06/03 09:52:39;;;;;;;;;;;20.00;99.90;;;;;;8385895;28;19931;-73
2023/06/03 09:56:41;;;;;;;;;;;20.00;99.90;;;;;;8393963;28;19934;-72
2023/06/03 10:00:50;;;;;;;;;;;20.10;99.90;;;;;;8390350;28;19924;-72
2023/06/03 10:04:52;;;;;;;;;;;20.10;99.90;;;;;;8388798;28;19951;-72
2023/06/03 10:08:54;;;;;;;;;;;20.10;99.90;;;;;;8391900;28;19932;-72
2023/06/03 10:12:56;;;;;;;;;;;20.20;99.60;;;;;;8382226;28;19924;-72
2023/06/03 10:17:05;;;;;;;;;;;20.20;99.70;;;;;;8389316;28;19928;-72
2023/06/03 10:21:10;;;;;;;;;;;20.20;99.70;;;;;;8391238;28;20422;-72
2023/06/03 10:25:12;;;;;;;;;;;20.20;99.30;;;;;;8396977;28;19935;-73
2023/06/03 10:29:25;;;;;;;;;;;20.20;99.20;;;;;;8385382;28;19928;-72
2023/06/03 10:33:28;;;;;;;;;;;20.30;99.30;;;;;;8393282;28;19939;-72
2023/06/03 10:47:38;;;;;;;;;;;20.40;98.70;;;;;;8394693;28;19941;-72
2023/06/03 10:51:58;;;;;;;;;;;20.40;98.70;;;;;;8391169;28;19931;-72
2023/06/03 11:22:04;;;;;;;;;;;20.70;97.00;;;;;;8393920;28;19927;-72
2023/06/03 11:26:26;;;;;;;;;;;20.80;96.70;;;;;;8396708;28;19928;-72
2023/06/03 11:30:48;;;;;;;;;;;20.80;96.00;;;;;;8374911;28;19986;-72
2023/06/03 11:50:00;;;;;;;;;;;21.10;95.20;;;;;;8395081;28;20282;-72
2023/06/03 11:54:11;;;;;;;;;;;21.20;95.70;;;;;;8393604;28;19932;-72
2023/06/03 11:58:14;;;;;;;;;;;21.20;95.30;;;;;;8395142;28;19986;-72
2023/06/03 12:02:16;;;;;;;;;;;21.20;95.30;;;;;;8388930;28;19932;-71
2023/06/03 12:06:18;;;;;;;;;;;21.30;94.80;;;;;;8388844;28;20851;-72
2023/06/03 12:10:20;;;;;;;;;;;21.30;95.20;;;;;;8395901;28;20014;-72
2023/06/03 12:14:26;;;;;;;;;;;21.40;95.00;;;;;;8394143;28;19932;-72
2023/06/03 12:18:28;;;;;;;;;;;21.50;94.50;;;;;;8391640;28;19932;-72
2023/06/03 12:22:29;;;;;;;;;;;21.50;94.30;;;;;;8394084;28;19928;-71
2023/06/03 12:37:09;;;;;;;;;;;21.50;93.20;;;;;;8389941;28;20272;-72
2023/06/03 12:41:10;;;;;;;;;;;21.50;92.80;;;;;;8396166;28;19928;-73
2023/06/03 12:45:21;;;;;;;;;;;21.60;92.70;;;;;;8384282;28;19936;-72
2023/06/03 12:49:23;;;;;;;;;;;21.60;92.50;;;;;;8392880;28;19931;-72
2023/06/03 12:53:25;;;;;;;;;;;21.70;92.90;;;;;;8390284;28;19928;-72
2023/06/03 12:57:27;;;;;;;;;;;21.70;92.60;;;;;;8370771;28;19932;-72
2023/06/03 13:01:28;;;;;;;;;;;21.80;92.50;;;;;;8388650;28;19932;-72
2023/06/03 13:05:30;;;;;;;;;;;21.80;92.70;;;;;;8396867;28;19974;-72
2023/06/03 13:09:33;;;;;;;;;;;21.80;92.50;;;;;;8377222;28;19924;-73
2023/06/03 13:13:36;;;;;;;;;;;21.90;92.10;;;;;;8371360;28;19925;-72
2023/06/03 13:17:38;;;;;;;;;;;21.90;92.10;;;;;;8389637;28;19928;-72
2023/06/03 13:21:39;;;;;;;;;;;21.90;92.10;;;;;;8390843;28;19929;-73
2023/06/03 13:25:41;;;;;;;;;;;22.00;92.10;;;;;;8395060;28;19924;-72
2023/06/03 13:29:43;;;;;;;;;;;22.00;90.90;;;;;;8375432;28;19928;-72
2023/06/03 13:33:44;;;;;;;;;;;22.00;91.10;;;;;;8390235;28;19924;-72
2023/06/03 13:37:46;;;;;;;;;;;22.00;90.70;;;;;;8391732;28;19935;-72
2023/06/03 13:41:52;;;;;;;;;;;22.00;90.60;;;;;;8374362;28;19928;-72
2023/06/03 13:45:53;;;;;;;;;;;22.00;89.80;;;;;;8393010;28;19929;-72
2023/06/03 13:49:56;;;;;;;;;;;22.00;90.40;;;;;;8397055;28;19931;-72
2023/06/03 13:53:58;;;;;;;;;;;22.00;90.00;;;;;;8386591;28;19928;-72
2023/06/03 13:57:59;;;;;;;;;;;22.00;89.10;;;;;;8386990;28;19950;-73
2023/06/03 14:02:01;;;;;;;;;;;22.10;90.00;;;;;;8382591;28;20370;-72
2023/06/03 14:06:03;;;;;;;;;;;22.10;89.20;;;;;;8389462;28;19928;-73
2023/06/03 14:25:15;;;;;;;;;;;22.40;88.40;;;;;;8394684;28;19989;-73
2023/06/03 14:29:17;;;;;;;;;;;22.50;88.30;;;;;;8398052;28;19973;-72
2023/06/03 14:33:21;;;;;;;;;;;22.50;87.10;;;;;;8392985;28;20288;-72
2023/06/03 14:37:23;;;;;;;;;;;22.50;87.20;;;;;;8388785;28;19974;-73
2023/06/03 14:41:27;;;;;;;;;;;22.60;87.00;;;;;;8385851;28;19978;-72
2023/06/03 14:45:29;;;;;;;;;;;22.70;87.50;;;;;;8377267;28;19986;-73
2023/06/03 14:49:30;;;;;;;;;;;22.80;88.30;;;;;;8398142;28;20387;-73
2023/06/03 14:53:32;;;;;;;;;;;22.90;87.40;;;;;;8394824;28;19974;-73
2023/06/03 14:57:33;;;;;;;;;;;22.90;86.10;;;;;;8394434;28;19928;-72
2023/06/03 15:01:35;;;;;;;;;;;23.00;86.70;;;;;;8391248;28;20577;-73
2023/06/03 15:05:37;;;;;;;;;;;23.00;87.40;;;;;;8397838;28;19924;-73
2023/06/03 15:09:39;;;;;;;;;;;23.00;86.60;;;;;;8397878;28;19928;-73
2023/06/03 15:13:40;;;;;;;;;;;23.10;86.40;;;;;;8395775;28;19978;-72
2023/06/03 15:17:42;;;;;;;;;;;23.10;86.30;;;;;;8396152;28;19924;-73
2023/06/03 15:21:44;;;;;;;;;;;23.10;85.60;;;;;;8400216;28;19928;-72
2023/06/03 15:35:53;;;;;;;;;;;23.20;83.80;;;;;;8396420;28;19924;-72
2023/06/03 15:39:54;;;;;;;;;;;23.10;82.50;;;;;;8387211;28;19970;-72
2023/06/03 15:54:10;;;;;;;;;;;23.70;83.30;;;;;;8392678;28;19933;-72
2023/06/03 15:58:12;;;;;;;;;;;24.10;82.90;;;;;;8374903;28;19959;-72
2023/06/03 16:02:14;;;;;;;;;;;24.50;83.30;;;;;;8389077;28;20445;-72
2023/06/03 16:06:16;;;;;;;;;;;25.00;81.80;;;;;;8389648;28;19932;-72
2023/06/03 16:10:18;;;;;;;;;;;25.30;81.30;;;;;;8393786;28;19924;-72
2023/06/03 16:14:20;;;;;;;;;;;25.60;81.90;;;;;;8373376;28;20404;-72
2023/06/03 16:18:22;;;;;;;;;;;26.00;82.80;;;;;;8388839;28;19925;-72
2023/06/03 16:22:24;;;;;;;;;;;26.20;79.70;;;;;;8389175;28;20373;-72
2023/06/03 16:26:25;;;;;;;;;;;26.40;80.70;;;;;;8391952;28;19925;-72
2023/06/03 16:30:27;;;;;;;;;;;26.60;81.10;;;;;;8373700;28;19928;-72
2023/06/03 16:34:29;;;;;;;;;;;26.80;82.40;;;;;;8390371;28;19925;-72
2023/06/03 16:38:31;;;;;;;;;;;27.00;81.40;;;;;;8389414;28;19970;-72
2023/06/03 16:42:32;;;;;;;;;;;27.10;82.50;;;;;;8389455;28;19933;-72
2023/06/03 16:46:34;;;;;;;;;;;27.10;81.10;;;;;;8390346;28;19933;-72
2023/06/03 16:50:36;;;;;;;;;;;27.10;81.10;;;;;;8389537;28;19931;-72
2023/06/03 16:54:37;;;;;;;;;;;27.10;81.10;;;;;;8384270;28;19935;-72
2023/06/03 16:58:39;;;;;;;;;;;27.00;81.30;;;;;;8388953;28;20257;-73
2023/06/03 17:02:41;;;;;;;;;;;26.90;80.90;;;;;;8393277;28;19973;-72
2023/06/03 17:06:43;;;;;;;;;;;26.60;80.30;;;;;;8390535;28;20317;-72
2023/06/03 17:10:44;;;;;;;;;;;26.30;79.70;;;;;;8387355;28;19936;-72
2023/06/03 17:14:46;;;;;;;;;;;25.90;79.30;;;;;;8389482;28;19932;-72
2023/06/03 17:18:48;;;;;;;;;;;25.50;79.10;;;;;;8385316;28;20019;-72
2023/06/03 17:22:49;;;;;;;;;;;25.20;76.40;;;;;;8390812;28;19928;-72
2023/06/03 17:26:52;;;;;;;;;;;24.90;75.90;;;;;;8387315;28;19928;-72
2023/06/03 17:30:54;;;;;;;;;;;24.70;75.90;;;;;;8379384;28;19936;-72
2023/06/03 17:45:04;;;;;;;;;;;24.20;72.40;;;;;;8386631;28;20429;-72
2023/06/03 17:49:06;;;;;;;;;;;24.00;72.40;;;;;;8380138;28;19925;-72
2023/06/03 17:53:07;;;;;;;;;;;24.00;72.40;;;;;;8368880;28;20300;-72
2023/06/03 17:57:09;;;;;;;;;;;23.90;71.90;;;;;;8387830;28;20415;-72
2023/06/03 18:01:11;;;;;;;;;;;23.80;71.70;;;;;;8383814;28;19924;-72
2023/06/03 18:05:14;;;;;;;;;;;23.70;71.30;;;;;;8392024;28;20043;-72
2023/06/03 18:09:16;;;;;;;;;;;23.60;70.80;;;;;;8401666;28;19932;-72
2023/06/03 18:13:18;;;;;;;;;;;23.40;70.70;;;;;;8384676;28;20368;-72
2023/06/03 18:17:19;;;;;;;;;;;23.40;71.00;;;;;;8387914;28;20273;-71
2023/06/03 18:21:21;;;;;;;;;;;23.30;70.50;;;;;;8395939;28;19970;-72
2023/06/03 18:25:23;;;;;;;;;;;23.30;70.70;;;;;;8377837;28;19951;-72
2023/06/03 18:29:25;;;;;;;;;;;23.20;70.20;;;;;;8396043;28;19962;-72
2023/06/03 18:33:26;;;;;;;;;;;23.20;70.40;;;;;;8393719;28;19924;-72
2023/06/03 18:37:28;;;;;;;;;;;23.10;70.00;;;;;;8394705;28;19962;-72
2023/06/03 18:41:30;;;;;;;;;;;23.00;69.80;;;;;;8383160;28;20584;-72
2023/06/03 18:45:32;;;;;;;;;;;23.00;70.10;;;;;;8384050;28;19925;-72
2023/06/03 18:49:33;;;;;;;;;;;22.90;69.70;;;;;;8383930;28;19932;-72
2023/06/03 18:53:35;;;;;;;;;;;22.80;69.90;;;;;;8386398;28;20065;-72
2023/06/03 18:57:37;;;;;;;;;;;22.70;69.50;;;;;;8401090;28;19932;-72
2023/06/03 19:01:40;;;;;;;;;;;22.60;69.70;;;;;;8396990;28;19932;-72
2023/06/03 19:05:42;;;;;;;;;;;22.50;69.80;;;;;;8393084;28;19924;-72
2023/06/03 19:09:44;;;;;;;;;;;22.40;69.90;;;;;;8390407;28;20326;-72
2023/06/03 19:13:46;;;;;;;;;;;22.30;70.10;;;;;;8375380;28;19928;-72
2023/06/03 19:27:55;;;;;;;;;;;22.00;69.70;;;;;;8390945;28;19923;-72
2023/06/03 19:31:58;;;;;;;;;;;21.80;69.50;;;;;;8390026;28;19928;-72
2023/06/03 19:36:00;;;;;;;;;;;21.70;69.30;;;;;;8391078;28;20053;-72
2023/06/03 19:40:01;;;;;;;;;;;21.60;69.30;;;;;;8391714;28;20372;-73
2023/06/03 19:44:06;;;;;;;;;;;21.50;69.20;;;;;;8392560;28;19924;-72
2023/06/03 19:48:07;;;;;;;;;;;21.30;68.80;;;;;;8392010;28;19974;-72
2023/06/03 19:52:09;;;;;;;;;;;21.20;68.70;;;;;;8377261;28;19924;-72
2023/06/03 19:56:11;;;;;;;;;;;21.00;68.70;;;;;;8393138;28;20417;-72
2023/06/03 20:00:13;;;;;;;;;;;20.90;69.00;;;;;;8389440;28;19932;-72
2023/06/03 20:04:15;;;;;;;;;;;20.80;69.30;;;;;;8371016;28;19978;-73
2023/06/03 20:08:17;;;;;;;;;;;20.60;69.50;;;;;;8383348;28;19968;-72
2023/06/03 20:12:18;;;;;;;;;;;20.60;69.80;;;;;;8388294;28;20280;-72
2023/06/03 20:16:22;;;;;;;;;;;20.50;70.00;;;;;;8385927;28;20018;-72
2023/06/03 20:20:24;;;;;;;;;;;20.40;70.20;;;;;;8389548;28;19928;-72
2023/06/03 20:24:26;;;;;;;;;;;20.40;70.40;;;;;;8385884;28;19982;-72
2023/06/03 20:28:28;;;;;;;;;;;20.30;70.50;;;;;;8389736;28;19924;-72
2023/06/03 20:32:30;;;;;;;;;;;20.20;70.60;;;;;;8383544;28;20395;-72
2023/06/03 20:36:32;;;;;;;;;;;20.10;70.70;;;;;;8385716;28;19925;-72
2023/06/03 20:40:34;;;;;;;;;;;20.00;70.90;;;;;;8386695;28;19932;-72
2023/06/03 20:44:36;;;;;;;;;;;19.90;70.90;;;;;;8382912;28;19955;-72
2023/06/03 20:58:45;;;;;;;;;;;19.70;71.20;;;;;;8384586;28;20033;-72
2023/06/03 21:02:47;;;;;;;;;;;19.60;71.30;;;;;;8392643;28;20356;-72
2023/06/03 21:06:48;;;;;;;;;;;19.50;71.40;;;;;;8401203;28;19928;-72
2023/06/03 21:10:50;;;;;;;;;;;19.50;71.50;;;;;;8413035;28;19928;-72
2023/06/03 21:14:52;;;;;;;;;;;19.40;71.50;;;;;;8392791;28;19939;-72
2023/06/03 21:18:54;;;;;;;;;;;19.40;71.60;;;;;;8392481;28;19928;-71
2023/06/03 21:22:55;;;;;;;;;;;19.40;71.60;;;;;;8399166;28;19936;-72
2023/06/03 21:26:58;;;;;;;;;;;19.30;71.50;;;;;;8407087;28;19957;-72
2023/06/03 21:30:59;;;;;;;;;;;19.20;71.60;;;;;;8410720;28;20384;-72
2023/06/03 21:40:04;;;;;;;;;;;19.10;71.70;;;;;;8399628;28;19966;-72
2023/06/03 21:44:06;;;;;;;;;;;19.00;71.70;;;;;;8404197;28;19928;-72
2023/06/03 21:48:08;;;;;;;;;;;19.00;71.80;;;;;;8405745;28;20425;-72
2023/06/03 21:52:09;;;;;;;;;;;18.90;71.70;;;;;;8402581;28;19932;-71
2023/06/03 21:56:11;;;;;;;;;;;18.80;71.70;;;;;;8409143;28;20307;-72
2023/06/03 22:00:13;;;;;;;;;;;18.80;71.90;;;;;;8414095;28;20023;-72
2023/06/03 22:04:17;;;;;;;;;;;18.80;72.00;;;;;;8400865;28;20391;-72
2023/06/03 22:08:19;;;;;;;;;;;18.70;72.00;;;;;;8387612;28;19925;-71
2023/06/03 22:12:21;;;;;;;;;;;18.60;71.90;;;;;;8405144;28;19924;-71
2023/06/03 22:16:23;;;;;;;;;;;18.60;72.00;;;;;;8419488;28;19928;-72
2023/06/03 22:20:25;;;;;;;;;;;18.50;72.00;;;;;;8419556;28;19928;-72
2023/06/03 22:24:26;;;;;;;;;;;18.50;72.10;;;;;;8387926;28;20311;-72
2023/06/03 22:28:28;;;;;;;;;;;18.40;72.10;;;;;;8414365;28;20383;-72
2023/06/03 22:32:30;;;;;;;;;;;18.30;72.20;;;;;;8404726;28;19982;-72
2023/06/03 22:36:31;;;;;;;;;;;18.20;72.20;;;;;;8411438;28;19925;-73
2023/06/03 22:40:33;;;;;;;;;;;18.20;72.30;;;;;;8408013;28;19924;-72
2023/06/03 22:44:35;;;;;;;;;;;18.10;72.20;;;;;;8395936;28;19924;-72
2023/06/03 22:48:36;;;;;;;;;;;18.00;72.30;;;;;;8408488;28;19924;-72
2023/06/03 23:02:45;;;;;;;;;;;17.90;72.40;;;;;;8407484;28;20489;-71
2023/06/03 23:06:47;;;;;;;;;;;17.80;72.50;;;;;;8408899;28;19935;-72
2023/06/03 23:10:48;;;;;;;;;;;17.80;72.60;;;;;;8411483;28;19924;-72
2023/06/03 23:14:50;;;;;;;;;;;17.70;72.60;;;;;;8416020;28;19924;-72
2023/06/03 23:18:52;;;;;;;;;;;17.60;72.50;;;;;;8412826;28;19924;-72
2023/06/03 23:22:54;;;;;;;;;;;17.60;72.60;;;;;;8416565;28;19931;-72
2023/06/03 23:26:55;;;;;;;;;;;17.50;72.70;;;;;;8415558;28;19935;-72
2023/06/03 23:30:57;;;;;;;;;;;17.50;72.80;;;;;;8423698;28;20322;-72
2023/06/03 23:34:59;;;;;;;;;;;17.40;72.80;;;;;;8409106;28;19932;-72
2023/06/03 23:39:01;;;;;;;;;;;17.30;72.80;;;;;;8400524;28;20626;-71
2023/06/03 23:43:03;;;;;;;;;;;17.30;72.90;;;;;;8409868;28;19924;-72
2023/06/03 23:47:05;;;;;;;;;;;17.20;72.80;;;;;;8393172;28;19924;-72
2023/06/03 23:51:06;;;;;;;;;;;17.10;72.80;;;;;;8404804;28;19931;-72
2023/06/03 23:55:08;;;;;;;;;;;17.10;72.90;;;;;;8396785;28;19928;-72
2023/06/03 23:59:10;;;;;;;;;;;17.10;73.00;;;;;;8401575;28;20268;-71
